首页
METAR-TAF:

METAR-TAF

机场 :

布里奇波特, 康乃狄克州, 美国

纬度: 41-09-30N, 经度: 073-07-44W, 海拔: 3米

当前天气观测

该预报发布于55分钟前的01:52 UTC
风速5节,风向多变
温度 24°C
湿度 74%
气压 1017 hPa
能見度: 16.1公里
天空无云

METAR: KBDR 270152Z VRB05KT 10SM CLR 24/19 A3002 RMK AO2 SLP165 T02390194 $

时间: 22:47 (02:47 UTC)

预报

该预报发布于18分钟前的02:29 UTC
预报有效从27日的 02点(UTC)到 27日的 24点(UTC)
风速3节,风向多变
能見度: 10公里
少量云层高于6000英尺
散云层高于25000英尺
从 27日的 1200点(UTC)
风速5节,风向北转西北
能見度: 10公里
少量云层高于25000英尺
从 27日的 1600点(UTC)
风速8节,风向西转西南
能見度: 10公里
少量云层高于25000英尺

TAF: KBDR 270229Z 2702/2724 VRB03KT P6SM FEW060 SCT250 FM271200 34005KT P6SM FEW250 FM271600 24008KT P6SM FEW250

超过4000个机场的气象观测和天气预报(METAR&TAF报告)。

可查询的气象台以黄色和红色小点在地图上表示。

将鼠标移到小点上方,可查看气象台名称。

然后点击查看天气观测和预报。

如需切换地图:点击带黑十字的绿色按钮放大地图;点击带横线的绿色按钮缩小地图;或者点击绿色箭头查看邻近地区的地图。


METAR-TAF: